LFQA 181530Z AUTO 26005KT 9999 ///TCU 21/18 Q1013

ElémentsDécodage
LFQA Station météo située sur l'aérodrome de REIMS Prunay
181530Z émis le 18 du mois à 15h30 UTC
AUTO Bulletin édité par un automate
26005KT vent du 260°, 05 noeuds
9999 visibilité horizontale supérieure à 10 Km
///TCU élement non décodé
21/18 température 21°C, point de rosée 18°C
 soit une humidité relative de 83%
Q1013 la pression au niveau de la mer (QNH) est de 1013 hPa